sensor_id;sensor_type;location;lat;lon;timestamp;P1;durP1;ratioP1;P2;durP2;ratioP2
2858;SDS011;1437;53.250;10.406;2023-03-13T00:00:13;14.90;;;5.57;;
2858;SDS011;1437;53.250;10.406;2023-03-13T00:02:44;21.17;;;7.37;;
2858;SDS011;1437;53.250;10.406;2023-03-13T00:05:14;29.40;;;8.63;;
2858;SDS011;1437;53.250;10.406;2023-03-13T00:07:44;29.40;;;6.67;;
2858;SDS011;1437;53.250;10.406;2023-03-13T00:10:12;19.77;;;6.00;;
2858;SDS011;1437;53.250;10.406;2023-03-13T00:12:41;17.93;;;7.57;;
2858;SDS011;1437;53.250;10.406;2023-03-13T00:15:09;20.67;;;7.27;;
2858;SDS011;1437;53.250;10.406;2023-03-13T00:17:37;30.13;;;6.70;;
2858;SDS011;1437;53.250;10.406;2023-03-13T00:20:05;20.07;;;6.80;;
2858;SDS011;1437;53.250;10.406;2023-03-13T00:22:33;23.80;;;7.50;;
2858;SDS011;1437;53.250;10.406;2023-03-13T00:25:07;25.47;;;8.10;;
2858;SDS011;1437;53.250;10.406;2023-03-13T00:27:49;24.07;;;7.00;;
2858;SDS011;1437;53.250;10.406;2023-03-13T00:30:26;22.13;;;9.00;;
2858;SDS011;1437;53.250;10.406;2023-03-13T00:32:53;33.73;;;6.90;;
2858;SDS011;1437;53.250;10.406;2023-03-13T00:35:21;31.40;;;6.43;;
2858;SDS011;1437;53.250;10.406;2023-03-13T00:37:49;22.47;;;7.20;;
2858;SDS011;1437;53.250;10.406;2023-03-13T00:40:18;24.73;;;7.33;;
2858;SDS011;1437;53.250;10.406;2023-03-13T00:42:46;30.20;;;7.40;;
2858;SDS011;1437;53.250;10.406;2023-03-13T00:45:13;37.63;;;9.07;;
2858;SDS011;1437;53.250;10.406;2023-03-13T00:47:41;22.77;;;8.00;;
2858;SDS011;1437;53.250;10.406;2023-03-13T00:50:12;23.83;;;7.87;;
2858;SDS011;1437;53.250;10.406;2023-03-13T00:52:40;23.77;;;7.10;;
2858;SDS011;1437;53.250;10.406;2023-03-13T00:55:08;27.57;;;7.73;;
2858;SDS011;1437;53.250;10.406;2023-03-13T00:57:37;25.90;;;7.93;;
2858;SDS011;1437;53.250;10.406;2023-03-13T01:00:08;22.10;;;7.40;;
2858;SDS011;1437;53.250;10.406;2023-03-13T01:02:40;27.57;;;8.20;;
2858;SDS011;1437;53.250;10.406;2023-03-13T01:07:59;23.43;;;6.73;;
2858;SDS011;1437;53.250;10.406;2023-03-13T01:10:27;26.43;;;7.10;;
2858;SDS011;1437;53.250;10.406;2023-03-13T01:13:00;17.73;;;6.47;;
2858;SDS011;1437;53.250;10.406;2023-03-13T01:15:32;28.37;;;8.57;;
2858;SDS011;1437;53.250;10.406;2023-03-13T01:18:02;29.70;;;8.57;;
2858;SDS011;1437;53.250;10.406;2023-03-13T01:20:29;23.90;;;6.10;;
2858;SDS011;1437;53.250;10.406;2023-03-13T01:22:59;24.63;;;7.70;;
2858;SDS011;1437;53.250;10.406;2023-03-13T01:25:26;14.67;;;5.80;;
2858;SDS011;1437;53.250;10.406;2023-03-13T01:27:57;21.17;;;7.33;;
2858;SDS011;1437;53.250;10.406;2023-03-13T01:30:27;26.47;;;6.33;;
2858;SDS011;1437;53.250;10.406;2023-03-13T01:32:56;33.43;;;8.60;;
2858;SDS011;1437;53.250;10.406;2023-03-13T01:35:27;20.13;;;7.07;;
2858;SDS011;1437;53.250;10.406;2023-03-13T01:37:54;27.17;;;7.23;;
2858;SDS011;1437;53.250;10.406;2023-03-13T01:40:22;29.23;;;6.93;;
2858;SDS011;1437;53.250;10.406;2023-03-13T01:42:51;29.97;;;8.20;;
2858;SDS011;1437;53.250;10.406;2023-03-13T01:48:13;28.63;;;7.00;;
2858;SDS011;1437;53.250;10.406;2023-03-13T01:50:42;22.33;;;6.70;;
2858;SDS011;1437;53.250;10.406;2023-03-13T01:53:10;17.97;;;6.60;;
2858;SDS011;1437;53.250;10.406;2023-03-13T01:55:39;17.97;;;7.30;;
2858;SDS011;1437;53.250;10.406;2023-03-13T01:58:07;21.17;;;6.47;;
2858;SDS011;1437;53.250;10.406;2023-03-13T02:00:35;28.20;;;9.03;;
2858;SDS011;1437;53.250;10.406;2023-03-13T02:03:05;19.23;;;7.90;;
2858;SDS011;1437;53.250;10.406;2023-03-13T02:05:36;23.73;;;7.30;;
2858;SDS011;1437;53.250;10.406;2023-03-13T02:08:05;17.57;;;7.70;;
2858;SDS011;1437;53.250;10.406;2023-03-13T02:10:36;21.07;;;6.97;;
2858;SDS011;1437;53.250;10.406;2023-03-13T02:13:05;27.73;;;7.03;;
2858;SDS011;1437;53.250;10.406;2023-03-13T02:15:35;28.93;;;6.70;;
2858;SDS011;1437;53.250;10.406;2023-03-13T02:18:03;19.60;;;6.63;;
2858;SDS011;1437;53.250;10.406;2023-03-13T02:20:32;28.63;;;7.00;;
2858;SDS011;1437;53.250;10.406;2023-03-13T02:23:11;26.17;;;6.80;;
2858;SDS011;1437;53.250;10.406;2023-03-13T02:25:47;34.33;;;7.07;;
2858;SDS011;1437;53.250;10.406;2023-03-13T02:28:16;17.03;;;6.33;;
2858;SDS011;1437;53.250;10.406;2023-03-13T02:30:44;22.53;;;6.40;;
2858;SDS011;1437;53.250;10.406;2023-03-13T02:33:12;28.27;;;6.47;;
2858;SDS011;1437;53.250;10.406;2023-03-13T02:35:40;14.43;;;4.93;;
2858;SDS011;1437;53.250;10.406;2023-03-13T02:38:17;16.93;;;5.50;;
2858;SDS011;1437;53.250;10.406;2023-03-13T02:40:46;22.30;;;5.60;;
2858;SDS011;1437;53.250;10.406;2023-03-13T02:43:16;20.97;;;5.90;;
2858;SDS011;1437;53.250;10.406;2023-03-13T02:45:59;24.40;;;5.07;;
2858;SDS011;1437;53.250;10.406;2023-03-13T02:48:31;23.50;;;5.93;;
2858;SDS011;1437;53.250;10.406;2023-03-13T02:51:01;22.60;;;5.50;;
2858;SDS011;1437;53.250;10.406;2023-03-13T02:53:31;13.53;;;4.03;;
2858;SDS011;1437;53.250;10.406;2023-03-13T02:56:01;18.80;;;6.27;;
2858;SDS011;1437;53.250;10.406;2023-03-13T02:58:34;17.03;;;5.70;;
2858;SDS011;1437;53.250;10.406;2023-03-13T03:01:11;21.00;;;5.90;;
2858;SDS011;1437;53.250;10.406;2023-03-13T03:03:39;27.50;;;5.50;;
2858;SDS011;1437;53.250;10.406;2023-03-13T03:06:17;26.03;;;6.10;;
2858;SDS011;1437;53.250;10.406;2023-03-13T03:08:45;13.30;;;4.63;;
2858;SDS011;1437;53.250;10.406;2023-03-13T03:11:14;12.50;;;3.97;;
2858;SDS011;1437;53.250;10.406;2023-03-13T03:13:42;17.03;;;4.10;;
2858;SDS011;1437;53.250;10.406;2023-03-13T03:16:12;27.80;;;7.07;;
2858;SDS011;1437;53.250;10.406;2023-03-13T03:18:42;21.47;;;5.43;;
2858;SDS011;1437;53.250;10.406;2023-03-13T03:21:14;27.50;;;7.03;;
2858;SDS011;1437;53.250;10.406;2023-03-13T03:23:43;24.43;;;5.10;;
2858;SDS011;1437;53.250;10.406;2023-03-13T03:26:12;13.20;;;4.13;;
2858;SDS011;1437;53.250;10.406;2023-03-13T03:28:43;22.23;;;5.17;;
2858;SDS011;1437;53.250;10.406;2023-03-13T03:31:12;11.50;;;3.87;;
2858;SDS011;1437;53.250;10.406;2023-03-13T03:33:43;21.77;;;4.73;;
2858;SDS011;1437;53.250;10.406;2023-03-13T03:36:12;11.87;;;4.97;;
2858;SDS011;1437;53.250;10.406;2023-03-13T03:38:40;12.10;;;4.27;;
2858;SDS011;1437;53.250;10.406;2023-03-13T03:41:08;23.40;;;5.40;;
2858;SDS011;1437;53.250;10.406;2023-03-13T03:43:42;18.27;;;4.90;;
2858;SDS011;1437;53.250;10.406;2023-03-13T03:46:15;19.93;;;4.53;;
2858;SDS011;1437;53.250;10.406;2023-03-13T03:48:45;14.00;;;4.17;;
2858;SDS011;1437;53.250;10.406;2023-03-13T03:51:14;24.27;;;3.87;;
2858;SDS011;1437;53.250;10.406;2023-03-13T03:53:43;15.40;;;3.97;;
2858;SDS011;1437;53.250;10.406;2023-03-13T03:56:12;18.43;;;4.80;;
2858;SDS011;1437;53.250;10.406;2023-03-13T03:58:44;13.10;;;3.43;;
2858;SDS011;1437;53.250;10.406;2023-03-13T04:01:14;22.27;;;7.40;;
2858;SDS011;1437;53.250;10.406;2023-03-13T04:03:44;19.20;;;5.33;;
2858;SDS011;1437;53.250;10.406;2023-03-13T04:06:13;18.77;;;5.70;;
2858;SDS011;1437;53.250;10.406;2023-03-13T04:08:44;24.70;;;5.53;;
2858;SDS011;1437;53.250;10.406;2023-03-13T04:11:17;12.63;;;5.37;;
2858;SDS011;1437;53.250;10.406;2023-03-13T04:13:50;21.67;;;4.70;;
2858;SDS011;1437;53.250;10.406;2023-03-13T04:16:18;18.13;;;4.10;;
2858;SDS011;1437;53.250;10.406;2023-03-13T04:18:51;17.40;;;3.87;;
2858;SDS011;1437;53.250;10.406;2023-03-13T04:21:19;18.00;;;4.73;;
2858;SDS011;1437;53.250;10.406;2023-03-13T04:23:48;13.83;;;5.17;;
2858;SDS011;1437;53.250;10.406;2023-03-13T04:26:25;18.17;;;4.40;;
2858;SDS011;1437;53.250;10.406;2023-03-13T04:28:56;15.40;;;3.33;;
2858;SDS011;1437;53.250;10.406;2023-03-13T04:31:25;17.30;;;6.43;;
2858;SDS011;1437;53.250;10.406;2023-03-13T04:33:54;18.70;;;4.90;;
2858;SDS011;1437;53.250;10.406;2023-03-13T04:36:23;18.27;;;4.17;;
2858;SDS011;1437;53.250;10.406;2023-03-13T04:38:53;18.20;;;4.90;;
2858;SDS011;1437;53.250;10.406;2023-03-13T04:41:23;15.43;;;3.33;;
2858;SDS011;1437;53.250;10.406;2023-03-13T04:43:52;17.90;;;4.00;;
2858;SDS011;1437;53.250;10.406;2023-03-13T04:46:25;18.50;;;5.27;;
2858;SDS011;1437;53.250;10.406;2023-03-13T04:48:55;20.07;;;4.03;;
2858;SDS011;1437;53.250;10.406;2023-03-13T04:51:25;18.07;;;4.10;;
2858;SDS011;1437;53.250;10.406;2023-03-13T04:53:54;12.13;;;4.00;;
2858;SDS011;1437;53.250;10.406;2023-03-13T04:56:24;16.07;;;4.80;;
2858;SDS011;1437;53.250;10.406;2023-03-13T04:58:54;13.50;;;3.77;;
2858;SDS011;1437;53.250;10.406;2023-03-13T05:01:25;19.20;;;4.23;;
2858;SDS011;1437;53.250;10.406;2023-03-13T05:03:52;14.97;;;3.83;;
2858;SDS011;1437;53.250;10.406;2023-03-13T05:06:20;17.63;;;3.60;;
2858;SDS011;1437;53.250;10.406;2023-03-13T05:08:48;22.37;;;5.43;;
2858;SDS011;1437;53.250;10.406;2023-03-13T05:11:19;17.83;;;4.50;;
2858;SDS011;1437;53.250;10.406;2023-03-13T05:13:46;15.57;;;4.23;;
2858;SDS011;1437;53.250;10.406;2023-03-13T05:16:14;12.60;;;3.90;;
2858;SDS011;1437;53.250;10.406;2023-03-13T05:18:43;13.00;;;4.33;;
2858;SDS011;1437;53.250;10.406;2023-03-13T05:21:11;17.17;;;3.90;;
2858;SDS011;1437;53.250;10.406;2023-03-13T05:23:39;14.63;;;4.43;;
2858;SDS011;1437;53.250;10.406;2023-03-13T05:26:07;18.73;;;4.70;;
2858;SDS011;1437;53.250;10.406;2023-03-13T05:28:35;16.57;;;4.37;;
2858;SDS011;1437;53.250;10.406;2023-03-13T05:31:03;19.37;;;4.67;;
2858;SDS011;1437;53.250;10.406;2023-03-13T05:33:31;24.17;;;4.93;;
2858;SDS011;1437;53.250;10.406;2023-03-13T05:36:01;18.27;;;4.37;;
2858;SDS011;1437;53.250;10.406;2023-03-13T05:38:29;13.70;;;4.60;;
2858;SDS011;1437;53.250;10.406;2023-03-13T05:40:58;10.50;;;4.40;;
2858;SDS011;1437;53.250;10.406;2023-03-13T05:43:26;13.80;;;4.90;;
2858;SDS011;1437;53.250;10.406;2023-03-13T05:45:54;8.70;;;3.13;;
2858;SDS011;1437;53.250;10.406;2023-03-13T05:48:22;16.20;;;4.43;;
2858;SDS011;1437;53.250;10.406;2023-03-13T05:50:50;15.67;;;4.10;;
2858;SDS011;1437;53.250;10.406;2023-03-13T05:53:19;17.43;;;4.97;;
2858;SDS011;1437;53.250;10.406;2023-03-13T05:55:50;15.27;;;4.60;;
2858;SDS011;1437;53.250;10.406;2023-03-13T05:58:20;12.23;;;4.50;;
2858;SDS011;1437;53.250;10.406;2023-03-13T06:00:48;16.10;;;4.20;;
2858;SDS011;1437;53.250;10.406;2023-03-13T06:03:19;16.70;;;3.83;;
2858;SDS011;1437;53.250;10.406;2023-03-13T06:05:47;10.40;;;3.33;;
2858;SDS011;1437;53.250;10.406;2023-03-13T06:08:14;13.13;;;3.20;;
2858;SDS011;1437;53.250;10.406;2023-03-13T06:10:44;15.57;;;3.97;;
2858;SDS011;1437;53.250;10.406;2023-03-13T06:13:12;14.93;;;3.00;;
2858;SDS011;1437;53.250;10.406;2023-03-13T06:15:40;7.80;;;3.40;;
2858;SDS011;1437;53.250;10.406;2023-03-13T06:18:08;14.40;;;3.70;;
2858;SDS011;1437;53.250;10.406;2023-03-13T06:20:37;15.60;;;4.50;;
2858;SDS011;1437;53.250;10.406;2023-03-13T06:23:05;7.70;;;3.63;;
2858;SDS011;1437;53.250;10.406;2023-03-13T06:25:33;12.23;;;3.80;;
2858;SDS011;1437;53.250;10.406;2023-03-13T06:28:03;7.23;;;3.03;;
2858;SDS011;1437;53.250;10.406;2023-03-13T06:30:31;11.67;;;2.97;;
2858;SDS011;1437;53.250;10.406;2023-03-13T06:32:59;7.30;;;2.53;;
2858;SDS011;1437;53.250;10.406;2023-03-13T06:35:27;14.27;;;3.73;;
2858;SDS011;1437;53.250;10.406;2023-03-13T06:37:55;10.90;;;3.30;;
2858;SDS011;1437;53.250;10.406;2023-03-13T06:40:24;6.30;;;3.30;;
2858;SDS011;1437;53.250;10.406;2023-03-13T06:42:55;9.47;;;2.80;;
2858;SDS011;1437;53.250;10.406;2023-03-13T06:45:33;6.23;;;2.90;;
2858;SDS011;1437;53.250;10.406;2023-03-13T06:48:06;12.37;;;2.83;;
2858;SDS011;1437;53.250;10.406;2023-03-13T06:50:36;5.10;;;1.73;;
2858;SDS011;1437;53.250;10.406;2023-03-13T06:53:04;7.40;;;2.67;;
2858;SDS011;1437;53.250;10.406;2023-03-13T06:55:35;8.83;;;2.40;;
2858;SDS011;1437;53.250;10.406;2023-03-13T06:58:03;7.30;;;2.10;;
2858;SDS011;1437;53.250;10.406;2023-03-13T07:00:38;6.60;;;2.60;;
2858;SDS011;1437;53.250;10.406;2023-03-13T07:03:08;7.13;;;2.13;;
2858;SDS011;1437;53.250;10.406;2023-03-13T07:05:36;9.03;;;2.07;;
2858;SDS011;1437;53.250;10.406;2023-03-13T07:08:04;4.23;;;1.70;;
2858;SDS011;1437;53.250;10.406;2023-03-13T07:10:35;6.57;;;2.17;;
2858;SDS011;1437;53.250;10.406;2023-03-13T07:13:03;5.97;;;1.83;;
2858;SDS011;1437;53.250;10.406;2023-03-13T07:15:33;7.57;;;2.80;;
2858;SDS011;1437;53.250;10.406;2023-03-13T07:18:07;7.40;;;2.33;;
2858;SDS011;1437;53.250;10.406;2023-03-13T07:20:43;9.23;;;2.40;;
2858;SDS011;1437;53.250;10.406;2023-03-13T07:23:10;9.73;;;2.40;;
2858;SDS011;1437;53.250;10.406;2023-03-13T07:25:39;4.73;;;2.13;;
2858;SDS011;1437;53.250;10.406;2023-03-13T07:28:07;5.00;;;2.30;;
2858;SDS011;1437;53.250;10.406;2023-03-13T07:30:35;5.13;;;2.67;;
2858;SDS011;1437;53.250;10.406;2023-03-13T07:33:02;7.37;;;3.20;;
2858;SDS011;1437;53.250;10.406;2023-03-13T07:35:32;6.80;;;2.27;;
2858;SDS011;1437;53.250;10.406;2023-03-13T07:38:00;12.40;;;3.10;;
2858;SDS011;1437;53.250;10.406;2023-03-13T07:40:30;7.20;;;3.50;;
2858;SDS011;1437;53.250;10.406;2023-03-13T07:43:10;9.77;;;2.60;;
2858;SDS011;1437;53.250;10.406;2023-03-13T07:45:49;16.50;;;3.23;;
2858;SDS011;1437;53.250;10.406;2023-03-13T07:48:17;7.73;;;3.67;;
2858;SDS011;1437;53.250;10.406;2023-03-13T07:50:46;5.10;;;2.27;;
2858;SDS011;1437;53.250;10.406;2023-03-13T07:53:15;7.90;;;3.40;;
2858;SDS011;1437;53.250;10.406;2023-03-13T07:55:54;5.40;;;2.93;;
2858;SDS011;1437;53.250;10.406;2023-03-13T07:58:23;5.37;;;2.97;;
2858;SDS011;1437;53.250;10.406;2023-03-13T08:00:55;10.47;;;4.40;;
2858;SDS011;1437;53.250;10.406;2023-03-13T08:03:34;6.70;;;3.33;;
2858;SDS011;1437;53.250;10.406;2023-03-13T08:06:09;4.23;;;2.50;;
2858;SDS011;1437;53.250;10.406;2023-03-13T08:08:37;4.90;;;3.33;;
2858;SDS011;1437;53.250;10.406;2023-03-13T08:11:08;5.43;;;2.97;;
2858;SDS011;1437;53.250;10.406;2023-03-13T08:13:36;4.70;;;2.43;;
2858;SDS011;1437;53.250;10.406;2023-03-13T08:16:06;7.30;;;2.80;;
2858;SDS011;1437;53.250;10.406;2023-03-13T08:18:34;6.90;;;4.07;;
2858;SDS011;1437;53.250;10.406;2023-03-13T08:21:09;6.80;;;3.40;;
2858;SDS011;1437;53.250;10.406;2023-03-13T08:23:42;5.87;;;2.67;;
2858;SDS011;1437;53.250;10.406;2023-03-13T08:26:15;8.70;;;3.57;;
2858;SDS011;1437;53.250;10.406;2023-03-13T08:28:51;16.37;;;4.50;;
2858;SDS011;1437;53.250;10.406;2023-03-13T08:31:21;7.10;;;2.90;;
2858;SDS011;1437;53.250;10.406;2023-03-13T08:33:49;4.33;;;2.80;;
2858;SDS011;1437;53.250;10.406;2023-03-13T08:36:21;6.93;;;3.90;;
2858;SDS011;1437;53.250;10.406;2023-03-13T08:38:49;5.40;;;3.13;;
2858;SDS011;1437;53.250;10.406;2023-03-13T08:41:19;9.33;;;3.80;;
2858;SDS011;1437;53.250;10.406;2023-03-13T08:43:47;8.10;;;4.57;;
2858;SDS011;1437;53.250;10.406;2023-03-13T08:46:15;5.40;;;2.50;;
2858;SDS011;1437;53.250;10.406;2023-03-13T08:48:47;5.67;;;3.47;;
2858;SDS011;1437;53.250;10.406;2023-03-13T08:51:16;6.23;;;4.47;;
2858;SDS011;1437;53.250;10.406;2023-03-13T08:53:45;8.33;;;4.63;;
2858;SDS011;1437;53.250;10.406;2023-03-13T08:56:18;7.33;;;4.30;;
2858;SDS011;1437;53.250;10.406;2023-03-13T08:58:55;7.10;;;3.83;;
2858;SDS011;1437;53.250;10.406;2023-03-13T09:01:34;11.27;;;5.77;;
2858;SDS011;1437;53.250;10.406;2023-03-13T09:04:14;8.43;;;5.23;;
2858;SDS011;1437;53.250;10.406;2023-03-13T09:06:54;6.93;;;4.33;;
2858;SDS011;1437;53.250;10.406;2023-03-13T09:09:53;7.87;;;5.67;;
2858;SDS011;1437;53.250;10.406;2023-03-13T09:18:11;12.60;;;8.13;;
2858;SDS011;1437;53.250;10.406;2023-03-13T09:21:06;4.80;;;3.10;;
2858;SDS011;1437;53.250;10.406;2023-03-13T09:23:47;7.43;;;3.60;;
2858;SDS011;1437;53.250;10.406;2023-03-13T09:26:26;3.90;;;2.83;;
2858;SDS011;1437;53.250;10.406;2023-03-13T09:29:07;7.63;;;4.23;;
2858;SDS011;1437;53.250;10.406;2023-03-13T09:31:54;6.33;;;3.70;;
2858;SDS011;1437;53.250;10.406;2023-03-13T09:34:29;4.77;;;4.00;;
2858;SDS011;1437;53.250;10.406;2023-03-13T09:37:47;6.83;;;4.83;;
2858;SDS011;1437;53.250;10.406;2023-03-13T09:40:25;6.80;;;4.80;;
2858;SDS011;1437;53.250;10.406;2023-03-13T09:42:59;8.47;;;4.83;;
2858;SDS011;1437;53.250;10.406;2023-03-13T09:45:33;6.87;;;4.83;;
2858;SDS011;1437;53.250;10.406;2023-03-13T09:48:41;6.70;;;4.57;;
2858;SDS011;1437;53.250;10.406;2023-03-13T09:51:14;10.97;;;5.87;;
2858;SDS011;1437;53.250;10.406;2023-03-13T09:53:44;8.43;;;5.63;;
2858;SDS011;1437;53.250;10.406;2023-03-13T09:56:24;7.80;;;5.00;;
2858;SDS011;1437;53.250;10.406;2023-03-13T09:59:08;6.57;;;5.27;;
2858;SDS011;1437;53.250;10.406;2023-03-13T10:02:51;7.33;;;5.57;;
2858;SDS011;1437;53.250;10.406;2023-03-13T10:04:52;6.73;;;4.40;;
2858;SDS011;1437;53.250;10.406;2023-03-13T10:07:32;6.20;;;4.03;;
2858;SDS011;1437;53.250;10.406;2023-03-13T10:10:05;8.67;;;5.40;;
2858;SDS011;1437;53.250;10.406;2023-03-13T10:12:56;6.30;;;4.37;;
2858;SDS011;1437;53.250;10.406;2023-03-13T10:15:37;9.57;;;5.43;;
2858;SDS011;1437;53.250;10.406;2023-03-13T10:18:21;8.07;;;5.00;;
2858;SDS011;1437;53.250;10.406;2023-03-13T10:20:57;7.20;;;4.97;;
2858;SDS011;1437;53.250;10.406;2023-03-13T10:24:25;7.40;;;4.80;;
2858;SDS011;1437;53.250;10.406;2023-03-13T10:26:58;6.53;;;3.47;;
2858;SDS011;1437;53.250;10.406;2023-03-13T10:29:35;9.13;;;4.10;;
2858;SDS011;1437;53.250;10.406;2023-03-13T10:38:20;5.10;;;4.03;;
2858;SDS011;1437;53.250;10.406;2023-03-13T10:44:02;4.30;;;3.90;;
2858;SDS011;1437;53.250;10.406;2023-03-13T10:47:25;4.87;;;4.30;;
2858;SDS011;1437;53.250;10.406;2023-03-13T10:49:49;6.30;;;5.20;;
2858;SDS011;1437;53.250;10.406;2023-03-13T10:52:43;5.07;;;3.80;;
2858;SDS011;1437;53.250;10.406;2023-03-13T10:55:23;5.57;;;4.57;;
2858;SDS011;1437;53.250;10.406;2023-03-13T10:57:58;5.43;;;3.77;;
2858;SDS011;1437;53.250;10.406;2023-03-13T11:00:36;6.60;;;4.40;;
2858;SDS011;1437;53.250;10.406;2023-03-13T11:03:22;7.40;;;4.97;;
2858;SDS011;1437;53.250;10.406;2023-03-13T11:08:47;5.17;;;4.00;;
2858;SDS011;1437;53.250;10.406;2023-03-13T11:11:30;7.43;;;5.00;;
2858;SDS011;1437;53.250;10.406;2023-03-13T11:14:15;6.13;;;4.17;;
2858;SDS011;1437;53.250;10.406;2023-03-13T11:16:59;15.37;;;11.80;;
2858;SDS011;1437;53.250;10.406;2023-03-13T11:25:49;4.87;;;3.10;;
2858;SDS011;1437;53.250;10.406;2023-03-13T11:31:32;5.73;;;3.30;;
2858;SDS011;1437;53.250;10.406;2023-03-13T11:34:23;5.10;;;3.40;;
2858;SDS011;1437;53.250;10.406;2023-03-13T11:37:11;5.40;;;3.13;;
2858;SDS011;1437;53.250;10.406;2023-03-13T11:39:47;4.43;;;2.20;;
2858;SDS011;1437;53.250;10.406;2023-03-13T11:42:30;4.83;;;2.90;;
2858;SDS011;1437;53.250;10.406;2023-03-13T11:45:19;3.90;;;3.50;;
2858;SDS011;1437;53.250;10.406;2023-03-13T11:47:56;4.07;;;2.50;;
2858;SDS011;1437;53.250;10.406;2023-03-13T11:50:39;6.13;;;2.77;;
2858;SDS011;1437;53.250;10.406;2023-03-13T11:53:18;4.00;;;2.80;;
2858;SDS011;1437;53.250;10.406;2023-03-13T11:55:56;2.60;;;1.90;;
2858;SDS011;1437;53.250;10.406;2023-03-13T11:58:34;3.67;;;2.23;;
2858;SDS011;1437;53.250;10.406;2023-03-13T12:01:07;5.37;;;3.40;;
2858;SDS011;1437;53.250;10.406;2023-03-13T12:06:33;4.50;;;2.63;;
2858;SDS011;1437;53.250;10.406;2023-03-13T12:09:05;2.83;;;2.47;;
2858;SDS011;1437;53.250;10.406;2023-03-13T12:11:41;4.13;;;2.30;;
2858;SDS011;1437;53.250;10.406;2023-03-13T12:14:20;2.80;;;2.10;;
2858;SDS011;1437;53.250;10.406;2023-03-13T12:17:04;4.97;;;2.37;;
2858;SDS011;1437;53.250;10.406;2023-03-13T12:19:49;5.40;;;2.43;;
2858;SDS011;1437;53.250;10.406;2023-03-13T12:22:27;5.43;;;2.00;;
2858;SDS011;1437;53.250;10.406;2023-03-13T12:25:11;4.00;;;1.73;;
2858;SDS011;1437;53.250;10.406;2023-03-13T12:27:42;2.80;;;1.83;;
2858;SDS011;1437;53.250;10.406;2023-03-13T12:30:18;4.73;;;2.67;;
2858;SDS011;1437;53.250;10.406;2023-03-13T12:32:52;7.37;;;1.60;;
2858;SDS011;1437;53.250;10.406;2023-03-13T12:35:25;4.07;;;1.93;;
2858;SDS011;1437;53.250;10.406;2023-03-13T12:38:08;3.43;;;1.80;;
2858;SDS011;1437;53.250;10.406;2023-03-13T12:41:06;3.73;;;1.47;;
2858;SDS011;1437;53.250;10.406;2023-03-13T12:43:48;2.83;;;1.80;;
2858;SDS011;1437;53.250;10.406;2023-03-13T12:46:53;2.90;;;1.37;;
2858;SDS011;1437;53.250;10.406;2023-03-13T12:49:42;3.80;;;1.80;;
2858;SDS011;1437;53.250;10.406;2023-03-13T12:52:26;4.70;;;1.60;;
2858;SDS011;1437;53.250;10.406;2023-03-13T12:55:17;4.10;;;2.37;;
2858;SDS011;1437;53.250;10.406;2023-03-13T12:58:09;3.77;;;2.50;;
2858;SDS011;1437;53.250;10.406;2023-03-13T13:00:48;3.37;;;1.40;;
2858;SDS011;1437;53.250;10.406;2023-03-13T13:03:25;2.63;;;1.53;;
2858;SDS011;1437;53.250;10.406;2023-03-13T13:06:12;2.00;;;1.40;;
2858;SDS011;1437;53.250;10.406;2023-03-13T13:09:00;4.97;;;1.70;;
2858;SDS011;1437;53.250;10.406;2023-03-13T13:17:57;5.67;;;1.00;;
2858;SDS011;1437;53.250;10.406;2023-03-13T13:23:39;4.43;;;1.13;;
2858;SDS011;1437;53.250;10.406;2023-03-13T13:32:15;2.73;;;0.80;;
2858;SDS011;1437;53.250;10.406;2023-03-13T13:34:58;1.60;;;0.60;;
2858;SDS011;1437;53.250;10.406;2023-03-13T13:37:39;2.97;;;1.00;;
2858;SDS011;1437;53.250;10.406;2023-03-13T13:40:20;5.53;;;0.90;;
2858;SDS011;1437;53.250;10.406;2023-03-13T13:42:57;4.13;;;0.80;;
2858;SDS011;1437;53.250;10.406;2023-03-13T13:49:22;5.20;;;1.20;;
2858;SDS011;1437;53.250;10.406;2023-03-13T13:55:41;3.20;;;1.13;;
2858;SDS011;1437;53.250;10.406;2023-03-13T13:58:17;4.00;;;1.10;;
2858;SDS011;1437;53.250;10.406;2023-03-13T14:00:54;4.20;;;1.07;;
2858;SDS011;1437;53.250;10.406;2023-03-13T14:03:26;7.70;;;1.87;;
2858;SDS011;1437;53.250;10.406;2023-03-13T14:06:14;5.30;;;1.60;;
2858;SDS011;1437;53.250;10.406;2023-03-13T14:08:47;3.57;;;1.50;;
2858;SDS011;1437;53.250;10.406;2023-03-13T14:11:27;3.50;;;1.20;;
2858;SDS011;1437;53.250;10.406;2023-03-13T14:14:09;8.83;;;2.23;;
2858;SDS011;1437;53.250;10.406;2023-03-13T14:16:42;4.57;;;1.33;;
2858;SDS011;1437;53.250;10.406;2023-03-13T14:19:27;3.97;;;1.30;;
2858;SDS011;1437;53.250;10.406;2023-03-13T14:22:11;2.90;;;1.47;;
2858;SDS011;1437;53.250;10.406;2023-03-13T14:24:40;2.67;;;1.10;;
2858;SDS011;1437;53.250;10.406;2023-03-13T14:27:16;2.07;;;0.80;;
2858;SDS011;1437;53.250;10.406;2023-03-13T14:32:48;4.00;;;1.30;;
2858;SDS011;1437;53.250;10.406;2023-03-13T14:35:36;3.40;;;1.10;;
2858;SDS011;1437;53.250;10.406;2023-03-13T14:38:25;5.47;;;1.30;;
2858;SDS011;1437;53.250;10.406;2023-03-13T14:40:55;3.53;;;1.20;;
2858;SDS011;1437;53.250;10.406;2023-03-13T14:43:46;3.40;;;1.10;;
2858;SDS011;1437;53.250;10.406;2023-03-13T14:46:22;4.93;;;1.63;;
2858;SDS011;1437;53.250;10.406;2023-03-13T14:49:13;2.83;;;0.87;;
2858;SDS011;1437;53.250;10.406;2023-03-13T14:51:48;6.97;;;1.73;;
2858;SDS011;1437;53.250;10.406;2023-03-13T14:54:32;6.50;;;1.53;;
2858;SDS011;1437;53.250;10.406;2023-03-13T14:57:15;9.60;;;1.80;;
2858;SDS011;1437;53.250;10.406;2023-03-13T15:00:20;3.00;;;1.10;;
2858;SDS011;1437;53.250;10.406;2023-03-13T15:06:12;7.90;;;1.77;;
2858;SDS011;1437;53.250;10.406;2023-03-13T15:09:06;3.77;;;1.40;;
2858;SDS011;1437;53.250;10.406;2023-03-13T15:17:33;5.47;;;1.57;;
2858;SDS011;1437;53.250;10.406;2023-03-13T15:20:14;3.17;;;1.10;;
2858;SDS011;1437;53.250;10.406;2023-03-13T15:28:56;6.73;;;1.60;;
2858;SDS011;1437;53.250;10.406;2023-03-13T15:31:26;3.20;;;1.37;;
2858;SDS011;1437;53.250;10.406;2023-03-13T15:33:56;3.87;;;1.20;;
2858;SDS011;1437;53.250;10.406;2023-03-13T15:36:31;5.93;;;1.90;;
2858;SDS011;1437;53.250;10.406;2023-03-13T15:38:59;3.87;;;1.57;;
2858;SDS011;1437;53.250;10.406;2023-03-13T15:41:30;6.67;;;2.10;;
2858;SDS011;1437;53.250;10.406;2023-03-13T15:44:24;6.00;;;2.17;;
2858;SDS011;1437;53.250;10.406;2023-03-13T15:47:01;3.87;;;1.50;;
2858;SDS011;1437;53.250;10.406;2023-03-13T15:49:45;6.80;;;1.50;;
2858;SDS011;1437;53.250;10.406;2023-03-13T15:52:20;2.73;;;1.17;;
2858;SDS011;1437;53.250;10.406;2023-03-13T15:54:55;4.63;;;1.60;;
2858;SDS011;1437;53.250;10.406;2023-03-13T15:58:16;4.60;;;1.80;;
2858;SDS011;1437;53.250;10.406;2023-03-13T16:06:44;3.80;;;1.80;;
2858;SDS011;1437;53.250;10.406;2023-03-13T16:09:22;4.70;;;1.00;;
2858;SDS011;1437;53.250;10.406;2023-03-13T16:11:58;2.70;;;1.00;;
2858;SDS011;1437;53.250;10.406;2023-03-13T16:14:36;9.03;;;1.63;;
2858;SDS011;1437;53.250;10.406;2023-03-13T16:17:19;4.63;;;1.80;;
2858;SDS011;1437;53.250;10.406;2023-03-13T16:19:52;3.47;;;1.03;;
2858;SDS011;1437;53.250;10.406;2023-03-13T16:22:26;5.07;;;1.00;;
2858;SDS011;1437;53.250;10.406;2023-03-13T16:25:00;3.20;;;1.03;;
2858;SDS011;1437;53.250;10.406;2023-03-13T16:27:34;4.40;;;1.37;;
2858;SDS011;1437;53.250;10.406;2023-03-13T16:30:20;4.00;;;1.13;;
2858;SDS011;1437;53.250;10.406;2023-03-13T16:32:54;3.60;;;1.30;;
2858;SDS011;1437;53.250;10.406;2023-03-13T16:35:22;7.37;;;2.37;;
2858;SDS011;1437;53.250;10.406;2023-03-13T16:37:56;3.40;;;1.57;;
2858;SDS011;1437;53.250;10.406;2023-03-13T16:40:26;2.80;;;1.20;;
2858;SDS011;1437;53.250;10.406;2023-03-13T16:42:57;3.23;;;1.40;;
2858;SDS011;1437;53.250;10.406;2023-03-13T16:45:32;3.90;;;1.43;;
2858;SDS011;1437;53.250;10.406;2023-03-13T16:48:15;5.47;;;2.00;;
2858;SDS011;1437;53.250;10.406;2023-03-13T16:50:44;5.17;;;1.20;;
2858;SDS011;1437;53.250;10.406;2023-03-13T16:53:20;3.63;;;1.37;;
2858;SDS011;1437;53.250;10.406;2023-03-13T16:55:50;7.40;;;1.10;;
2858;SDS011;1437;53.250;10.406;2023-03-13T16:58:22;3.40;;;1.17;;
2858;SDS011;1437;53.250;10.406;2023-03-13T17:00:50;4.67;;;1.40;;